createdAt,value
2018-06-18T00:01:20.231Z,19.50
2018-06-18T00:04:53.473Z,19.50
2018-06-18T00:08:26.745Z,19.40
2018-06-18T00:12:00.000Z,19.50
2018-06-18T00:15:33.256Z,19.40
2018-06-18T00:19:06.516Z,19.40
2018-06-18T00:22:39.757Z,19.40
2018-06-18T00:26:14.243Z,19.40
2018-06-18T00:29:47.532Z,19.40
2018-06-18T00:33:20.831Z,19.30
2018-06-18T00:36:54.080Z,19.30
2018-06-18T00:44:00.299Z,19.20
2018-06-18T00:47:33.532Z,19.20
2018-06-18T00:51:06.808Z,19.10
2018-06-18T00:54:40.117Z,19.00
2018-06-18T01:01:46.883Z,18.90
2018-06-18T01:08:53.133Z,18.80
2018-06-18T01:12:26.396Z,18.80
2018-06-18T01:15:59.612Z,18.70
2018-06-18T01:19:32.837Z,18.70
2018-06-18T01:24:14.484Z,18.70
2018-06-18T01:27:47.714Z,18.70
2018-06-18T01:31:21.016Z,18.60
2018-06-18T01:34:54.605Z,18.60
2018-06-18T01:38:27.858Z,18.70
2018-06-18T01:42:01.086Z,18.70
2018-06-18T01:45:34.327Z,18.70
2018-06-18T01:49:07.537Z,18.60
2018-06-18T01:52:40.763Z,18.70
2018-06-18T01:56:13.988Z,18.70
2018-06-18T01:59:47.228Z,18.70
2018-06-18T02:03:20.456Z,18.60
2018-06-18T02:06:53.801Z,18.60
2018-06-18T02:10:27.077Z,18.60
2018-06-18T02:14:00.268Z,18.60
2018-06-18T02:17:33.482Z,18.40
2018-06-18T02:21:06.781Z,18.30
2018-06-18T02:24:40.032Z,18.20
2018-06-18T02:28:18.595Z,18.20
2018-06-18T02:31:57.316Z,18.20
2018-06-18T02:39:12.323Z,18.20
2018-06-18T02:46:18.730Z,18.20
2018-06-18T02:53:24.992Z,18.10
2018-06-18T02:57:03.063Z,18.10
2018-06-18T03:00:36.305Z,18.10
2018-06-18T03:04:09.625Z,18.10
2018-06-18T03:07:42.842Z,18.00
2018-06-18T03:11:16.228Z,18.00
2018-06-18T03:14:49.458Z,18.00
2018-06-18T03:18:28.099Z,17.90
2018-06-18T03:22:06.810Z,17.90
2018-06-18T03:25:45.374Z,17.80
2018-06-18T03:29:20.992Z,17.80
2018-06-18T03:32:54.227Z,17.70
2018-06-18T03:36:27.447Z,17.70
2018-06-18T03:40:00.695Z,17.70
2018-06-18T03:43:36.134Z,17.60
2018-06-18T03:47:15.197Z,17.60
2018-06-18T03:50:48.423Z,17.60
2018-06-18T03:54:21.647Z,17.60
2018-06-18T03:57:54.931Z,17.60
2018-06-18T04:01:46.408Z,17.70
2018-06-18T04:05:25.002Z,17.70
2018-06-18T04:09:03.853Z,17.80
2018-06-18T04:12:37.107Z,17.90
2018-06-18T04:16:10.342Z,18.00
2018-06-18T04:19:43.568Z,18.00
2018-06-18T04:23:17.101Z,18.10
2018-06-18T04:26:50.381Z,18.10
2018-06-18T04:30:23.645Z,18.20
2018-06-18T04:37:36.007Z,18.20
2018-06-18T04:41:09.231Z,18.30
2018-06-18T04:44:47.707Z,18.40
2018-06-18T04:48:26.283Z,18.40
2018-06-18T04:51:59.532Z,18.50
2018-06-18T04:59:05.752Z,18.60
2018-06-18T05:02:39.552Z,18.60
2018-06-18T05:06:12.853Z,18.60
2018-06-18T05:10:04.743Z,18.70
2018-06-18T05:13:37.946Z,18.80
2018-06-18T05:17:11.175Z,18.90
2018-06-18T05:20:44.453Z,18.90
2018-06-18T05:24:17.692Z,18.80
2018-06-18T05:27:51.025Z,18.70
2018-06-18T05:31:24.316Z,18.70
2018-06-18T05:34:57.661Z,18.80
2018-06-18T05:38:35.913Z,18.80
2018-06-18T05:42:09.126Z,18.80
2018-06-18T05:45:42.379Z,18.80
2018-06-18T05:49:15.624Z,18.80
2018-06-18T05:52:50.099Z,18.80
2018-06-18T05:56:23.411Z,18.80
2018-06-18T05:59:56.632Z,18.80
2018-06-18T06:03:29.920Z,18.80
2018-06-18T06:07:03.129Z,18.80
2018-06-18T06:10:36.547Z,18.80
2018-06-18T06:14:09.780Z,18.90
2018-06-18T06:17:43.020Z,18.90
2018-06-18T06:21:16.361Z,19.00
2018-06-18T06:24:49.604Z,19.10
2018-06-18T06:28:25.115Z,19.30
2018-06-18T06:32:08.115Z,19.40
2018-06-18T06:35:47.057Z,19.40
2018-06-18T06:39:22.700Z,19.60
2018-06-18T06:43:06.342Z,19.70
2018-06-18T06:46:44.272Z,19.90
2018-06-18T06:50:17.763Z,20.20
2018-06-18T06:57:24.019Z,20.70
2018-06-18T07:00:57.250Z,20.90
2018-06-18T07:08:03.533Z,21.60
2018-06-18T07:11:36.881Z,22.00
2018-06-18T07:15:10.115Z,22.20
2018-06-18T07:18:43.363Z,22.20
2018-06-18T07:22:16.697Z,22.10
2018-06-18T07:25:50.032Z,22.10
2018-06-18T07:29:23.295Z,22.20
2018-06-18T07:32:56.550Z,22.00
2018-06-18T07:40:02.778Z,21.70
2018-06-18T07:43:36.067Z,21.80
2018-06-18T07:47:09.295Z,21.90
2018-06-18T07:50:42.580Z,21.90
2018-06-18T07:54:15.824Z,22.00
2018-06-18T07:57:49.076Z,22.20
2018-06-18T08:01:22.309Z,22.10
2018-06-18T08:04:55.546Z,22.10
2018-06-18T08:08:28.795Z,22.10
2018-06-18T08:12:02.057Z,22.20
2018-06-18T08:15:35.303Z,22.40
2018-06-18T08:19:08.617Z,22.50
2018-06-18T08:22:41.842Z,22.60
2018-06-18T08:29:48.074Z,22.40
2018-06-18T08:33:21.315Z,22.40
2018-06-18T08:36:54.619Z,22.30
2018-06-18T08:40:27.855Z,22.30
2018-06-18T08:44:01.083Z,22.40
2018-06-18T08:47:34.319Z,22.30
2018-06-18T08:51:12.957Z,22.20
2018-06-18T08:54:51.635Z,22.20
2018-06-18T08:58:30.178Z,22.40
2018-06-18T09:02:03.446Z,22.30
2018-06-18T09:05:43.271Z,22.50
2018-06-18T09:09:16.521Z,22.60
2018-06-18T09:12:49.785Z,22.90
2018-06-18T09:16:23.101Z,23.20
2018-06-18T09:19:56.345Z,23.40
2018-06-18T09:23:29.612Z,23.50
2018-06-18T09:27:08.203Z,23.50
2018-06-18T09:30:41.444Z,23.40
2018-06-18T09:34:14.734Z,23.40
2018-06-18T09:37:47.987Z,23.40
2018-06-18T09:41:21.239Z,23.30
2018-06-18T09:44:54.482Z,23.20
2018-06-18T09:48:33.155Z,23.00
2018-06-18T09:52:11.773Z,23.00
2018-06-18T09:55:50.534Z,23.00
2018-06-18T09:59:39.638Z,23.30
2018-06-18T10:03:12.919Z,23.70
2018-06-18T10:06:46.209Z,24.00
2018-06-18T10:10:19.428Z,24.10
2018-06-18T10:13:52.683Z,24.00
2018-06-18T10:17:26.377Z,24.00
2018-06-18T10:20:59.615Z,24.00
2018-06-18T10:24:32.937Z,24.10
2018-06-18T10:28:06.474Z,24.10
2018-06-18T10:35:18.177Z,24.00
2018-06-18T10:42:35.215Z,23.90
2018-06-18T10:46:08.472Z,23.80
2018-06-18T10:49:41.716Z,23.70
2018-06-18T10:53:14.971Z,23.80
2018-06-18T10:56:48.243Z,23.80
2018-06-18T11:00:24.507Z,23.70
2018-06-18T11:03:58.410Z,23.70
2018-06-18T11:14:38.692Z,23.60
2018-06-18T11:18:17.332Z,23.50
2018-06-18T11:21:56.164Z,23.40
2018-06-18T11:25:34.901Z,23.40
2018-06-18T11:32:41.461Z,23.60
2018-06-18T11:36:14.848Z,23.70
2018-06-18T11:39:48.215Z,23.70
2018-06-18T11:43:21.611Z,23.70
2018-06-18T11:46:54.953Z,23.70
2018-06-18T11:50:28.340Z,23.80
2018-06-18T11:54:01.768Z,23.80
2018-06-18T11:57:35.100Z,23.80
2018-06-18T12:01:13.785Z,23.90
2018-06-18T12:04:52.600Z,24.00
2018-06-18T12:08:31.442Z,24.10
2018-06-18T12:12:04.701Z,24.40
2018-06-18T12:15:37.944Z,24.60
2018-06-18T12:19:11.214Z,24.70
2018-06-18T12:26:17.502Z,24.70
2018-06-18T12:29:50.791Z,24.50
2018-06-18T12:33:24.060Z,24.50
2018-06-18T12:36:57.299Z,24.50
2018-06-18T12:40:30.538Z,24.60
2018-06-18T12:44:03.784Z,24.50
2018-06-18T12:47:42.443Z,24.50
2018-06-18T12:51:21.082Z,24.50
2018-06-18T12:54:59.632Z,24.50
2018-06-18T12:58:32.883Z,24.50
2018-06-18T13:02:11.000Z,24.40
2018-06-18T13:05:44.216Z,24.60
2018-06-18T13:09:17.468Z,24.90
2018-06-18T13:12:51.147Z,25.20
2018-06-18T13:16:24.477Z,25.50
2018-06-18T13:19:58.415Z,25.60
2018-06-18T13:23:32.492Z,25.70
2018-06-18T13:27:05.739Z,25.80
2018-06-18T13:30:39.081Z,25.80
2018-06-18T13:34:12.350Z,25.90
2018-06-18T13:37:50.956Z,25.90
2018-06-18T13:41:29.623Z,25.80
2018-06-18T13:45:08.376Z,25.90
2018-06-18T13:49:00.201Z,26.10
2018-06-18T13:52:35.946Z,26.10
2018-06-18T13:56:09.339Z,26.10
2018-06-18T13:59:42.721Z,26.20
2018-06-18T14:03:15.973Z,26.30
2018-06-18T14:06:49.225Z,26.30
2018-06-18T14:10:22.467Z,26.20
2018-06-18T14:13:55.908Z,26.20
2018-06-18T14:17:29.072Z,26.30
2018-06-18T14:21:02.295Z,26.70
2018-06-18T14:24:35.544Z,27.10
2018-06-18T14:31:47.102Z,27.50
2018-06-18T14:35:25.668Z,28.10
2018-06-18T14:42:37.638Z,28.30
2018-06-18T14:46:10.917Z,28.00
2018-06-18T14:49:44.334Z,27.70
2018-06-18T14:53:17.635Z,27.50
2018-06-18T14:56:52.603Z,27.40
2018-06-18T15:00:27.693Z,27.40
2018-06-18T15:04:01.112Z,27.30
2018-06-18T15:07:34.470Z,27.00
2018-06-18T15:11:07.784Z,26.70
2018-06-18T15:14:41.124Z,26.70
2018-06-18T15:18:14.500Z,26.80
2018-06-18T15:21:52.007Z,26.80
2018-06-18T15:25:26.538Z,26.90
2018-06-18T15:28:59.854Z,27.10
2018-06-18T15:32:33.223Z,27.20
2018-06-18T15:36:06.553Z,27.20
2018-06-18T15:43:12.967Z,27.00
2018-06-18T15:46:46.274Z,26.80
2018-06-18T15:50:19.722Z,26.50
2018-06-18T15:53:53.059Z,26.50
2018-06-18T15:57:26.363Z,27.30
2018-06-18T16:00:59.737Z,28.30
2018-06-18T16:04:33.035Z,29.10
2018-06-18T16:08:06.467Z,29.90
2018-06-18T16:11:39.825Z,29.90
2018-06-18T16:15:13.192Z,29.40
2018-06-18T16:18:46.533Z,29.30
2018-06-18T16:22:19.846Z,29.20
2018-06-18T16:25:53.303Z,29.10
2018-06-18T16:29:26.720Z,28.50
2018-06-18T16:33:00.086Z,27.70
2018-06-18T16:36:33.385Z,27.20
2018-06-18T16:40:07.052Z,26.80
2018-06-18T16:43:40.369Z,26.50
2018-06-18T16:47:13.719Z,26.50
2018-06-18T16:50:47.045Z,26.50
2018-06-18T16:54:21.509Z,26.40
2018-06-18T16:57:54.875Z,26.20
2018-06-18T17:01:28.208Z,26.00
2018-06-18T17:05:01.596Z,25.70
2018-06-18T17:08:34.914Z,25.40
2018-06-18T17:12:08.273Z,25.20
2018-06-18T17:15:41.640Z,25.20
2018-06-18T17:19:14.921Z,25.10
2018-06-18T17:22:48.216Z,25.10
2018-06-18T17:26:21.654Z,25.00
2018-06-18T17:33:28.247Z,24.90
2018-06-18T17:37:01.542Z,24.90
2018-06-18T17:40:34.940Z,24.80
2018-06-18T17:44:08.377Z,24.60
2018-06-18T17:47:41.793Z,24.60
2018-06-18T17:51:15.195Z,24.60
2018-06-18T17:54:48.766Z,24.60
2018-06-18T17:58:22.229Z,24.60
2018-06-18T18:01:55.565Z,24.60
2018-06-18T18:05:28.895Z,24.50
2018-06-18T18:09:02.709Z,24.50
2018-06-18T18:12:35.994Z,24.40
2018-06-18T18:16:11.068Z,24.30
2018-06-18T18:20:10.238Z,24.30
2018-06-18T18:23:43.767Z,24.20
2018-06-18T18:27:17.101Z,24.00
2018-06-18T18:30:50.567Z,24.00
2018-06-18T18:34:23.863Z,23.80
2018-06-18T18:41:30.307Z,23.60
2018-06-18T18:45:03.789Z,23.50
2018-06-18T18:48:37.105Z,23.40
2018-06-18T18:52:10.445Z,23.30
2018-06-18T18:55:56.604Z,23.20
2018-06-18T18:59:31.678Z,23.10
2018-06-18T19:03:05.136Z,23.00
2018-06-18T19:06:38.445Z,22.90
2018-06-18T19:10:16.200Z,22.80
2018-06-18T19:20:59.669Z,22.70
2018-06-18T19:24:33.176Z,22.60
2018-06-18T19:28:06.460Z,22.50
2018-06-18T19:31:40.243Z,22.40
2018-06-18T19:35:14.396Z,22.30
2018-06-18T19:38:48.104Z,22.30
2018-06-18T19:42:22.285Z,22.20
2018-06-18T19:46:01.117Z,22.10
2018-06-18T19:49:38.135Z,22.10
2018-06-18T19:53:15.193Z,22.00
2018-06-18T19:56:52.584Z,21.90
2018-06-18T20:00:40.533Z,21.90
2018-06-18T20:04:16.175Z,21.80
2018-06-18T20:07:55.102Z,21.70
2018-06-18T20:11:33.084Z,21.70
2018-06-18T20:15:13.248Z,21.60
2018-06-18T20:18:47.726Z,21.60
2018-06-18T20:22:21.024Z,21.50
2018-06-18T20:26:03.923Z,21.50
2018-06-18T20:29:38.819Z,21.40
2018-06-18T20:33:15.361Z,21.40
2018-06-18T20:36:49.028Z,21.30
2018-06-18T20:40:23.652Z,21.30
2018-06-18T20:44:02.787Z,21.30
2018-06-18T20:47:36.366Z,21.20
2018-06-18T20:51:10.027Z,21.10
2018-06-18T20:54:43.292Z,21.10
2018-06-18T20:58:16.508Z,21.00
2018-06-18T21:01:49.763Z,21.00
2018-06-18T21:05:22.997Z,20.90
2018-06-18T21:08:56.246Z,20.90
2018-06-18T21:12:29.474Z,20.80
2018-06-18T21:16:02.683Z,20.80
2018-06-18T21:19:35.886Z,20.70
2018-06-18T21:23:09.107Z,20.60
2018-06-18T21:26:42.395Z,20.60
2018-06-18T21:30:15.736Z,20.50
2018-06-18T21:37:22.039Z,20.50
2018-06-18T21:40:55.285Z,20.40
2018-06-18T21:44:32.967Z,20.40
2018-06-18T21:48:06.734Z,20.40
2018-06-18T21:51:40.120Z,20.40
2018-06-18T21:55:13.890Z,20.30
2018-06-18T21:58:47.155Z,20.30
2018-06-18T22:02:20.453Z,20.20
2018-06-18T22:05:53.720Z,20.20
2018-06-18T22:09:26.936Z,20.20
2018-06-18T22:13:00.188Z,20.10
2018-06-18T22:16:33.407Z,20.10
2018-06-18T22:20:06.687Z,20.10
2018-06-18T22:23:39.919Z,20.10
2018-06-18T22:27:13.152Z,20.00
2018-06-18T22:30:46.397Z,20.00
2018-06-18T22:34:19.711Z,20.00
2018-06-18T22:41:25.960Z,19.80
2018-06-18T22:44:59.207Z,19.80
2018-06-18T22:48:32.459Z,19.70
2018-06-18T22:55:38.689Z,19.60
2018-06-18T22:59:11.915Z,19.60
2018-06-18T23:02:45.165Z,19.60
2018-06-18T23:06:18.450Z,19.60
2018-06-18T23:09:51.699Z,19.50
2018-06-18T23:13:29.778Z,19.50
2018-06-18T23:17:03.013Z,19.40
2018-06-18T23:20:36.281Z,19.40
2018-06-18T23:24:09.547Z,19.40
2018-06-18T23:27:42.802Z,19.40
2018-06-18T23:31:16.239Z,19.30
2018-06-18T23:34:49.485Z,19.30
2018-06-18T23:38:22.736Z,19.20
2018-06-18T23:41:57.061Z,19.20
2018-06-18T23:45:30.296Z,19.10
2018-06-18T23:52:36.503Z,19.00
2018-06-18T23:56:09.725Z,19.00
2018-06-18T23:59:43.067Z,19.00
